• Join FlightAware (Why Join?)
  • Login
  • US Flag 
07:15AM EST


 

Airport Tracker/Info


-or-


 

Live Flight TrackerFlight Track Log ✈ TYR394 ✈ 12-Apr-2013 ✈ LEBL / BCN - LOWW / VIE

Flight Track Log - Related Links

Times and Time Zones

All times are in EDT time to prevent confusion due to time zone crossing. See the TYR394 flight status page for this flight to view local times or setup timezone preferences in your user account.

Time Position Orientation Groundspeed Altitude Reporting Facility
EDT Latitude Longitude Course Direction KTS MPH feet Rate Location/Type
02:45PM 42.3279 3.8579 52° Northeast  Level Estimated
02:46PM 42.3957 3.9786 53° Northeast  Level Estimated
02:47PM 42.4633 4.0995 53° Northeast  Level Estimated
02:48PM 42.5308 4.2207 53° Northeast  Level Estimated
02:49PM 42.5981 4.3422 53° Northeast  Level Estimated
02:50PM 42.6654 4.4639 53° Northeast  Level Estimated
02:51PM 42.7324 4.5859 53° Northeast  Level Estimated
02:52PM 42.7994 4.7082 53° Northeast  Level Estimated
02:53PM 42.8663 4.8307 53° Northeast  Level Estimated
02:54PM 42.9330 4.9535 53° Northeast  Level Estimated
02:55PM 42.9995 5.0765 53° Northeast  Level Estimated
02:56PM 43.0660 5.1999 54° Northeast  Level Estimated
02:57PM 43.1323 5.3234 54° Northeast  Level Estimated
02:58PM 43.1985 5.4473 54° Northeast  Level Estimated
02:59PM 43.2645 5.5714 54° Northeast  Level Estimated
03:00PM 43.3304 5.6958 54° Northeast  Level Estimated
03:01PM 43.3962 5.8205 54° Northeast  Level Estimated
03:02PM 43.4618 5.9454 54° Northeast  Level Estimated
03:03PM 43.5273 6.0706 54° Northeast  Level Estimated
03:04PM 43.5927 6.1961 54° Northeast  Level Estimated
03:05PM 43.6579 6.3218 54° Northeast  Level Estimated
03:06PM 43.7230 6.4478 54° Northeast  Level Estimated
03:07PM 43.7879 6.5741 55° Northeast  Level Estimated
03:08PM 43.8528 6.7007 55° Northeast  Level Estimated
03:09PM 43.9174 6.8275 55° Northeast  Level Estimated
03:10PM 43.9820 6.9547 55° Northeast  Level Estimated
03:11PM 44.0463 7.0821 55° Northeast  Level Estimated
03:12PM 44.1106 7.2097 55° Northeast  Level Estimated
03:13PM 44.1747 7.3377 55° Northeast  Level Estimated
03:14PM 44.2387 7.4659 55° Northeast  Level Estimated
03:15PM 44.3025 7.5944 55° Northeast  Level Estimated
03:16PM 44.3661 7.7232 55° Northeast  Level Estimated
03:17PM 44.4297 7.8523 55° Northeast  Level Estimated
03:18PM 44.4930 7.9816 55° Northeast  Level Estimated
03:19PM 44.5563 8.1113 56° Northeast  Level Estimated
03:20PM 44.6194 8.2412 56° Northeast  Level Estimated
03:21PM 44.6823 8.3714 56° Northeast  Level Estimated
03:22PM 44.7451 8.5018 56° Northeast  Level Estimated
03:23PM 44.8077 8.6326 56° Northeast  Level Estimated
03:24PM 44.8702 8.7636 56° Northeast  Level Estimated
03:25PM 44.9326 8.8950 56° Northeast  Level Estimated
03:26PM 44.9948 9.0266 56° Northeast  Level Estimated
03:27PM 45.0568 9.1585 56° Northeast  Level Estimated
03:28PM 45.1187 9.2907 56° Northeast  Level Estimated
03:29PM 45.1804 9.4231 56° Northeast  Level Estimated
03:30PM 45.2420 9.5559 57° Northeast  Level Estimated
03:31PM 45.3034 9.6889 57° Northeast  Level Estimated
03:32PM 45.3647 9.8223 57° Northeast  Level Estimated
03:33PM 45.4258 9.9559 57° Northeast  Level Estimated
03:34PM 45.4868 10.0898 57° Northeast  Level Estimated
03:35PM 45.5476 10.2240 57° Northeast  Level Estimated
03:36PM 45.6082 10.3585 57° Northeast  Level Estimated
03:37PM 45.6687 10.4933 57° Northeast  Level Estimated
03:38PM 45.7291 10.6283 57° Northeast  Level Estimated
03:39PM 45.7892 10.7637 57° Northeast  Level Estimated
03:40PM 45.8492 10.8994 58° Northeast  Level Estimated
03:41PM 45.9091 11.0353 58° Northeast  Level Estimated
03:42PM 45.9688 11.1716 58° Northeast  Level Estimated
03:43PM 46.0283 11.3081 58° Northeast  Level Estimated
03:44PM 46.0877 11.4449 58° Northeast  Level Estimated
03:45PM 46.1469 11.5821 58° Northeast  Level Estimated
03:46PM 46.2059 11.7195 58° Northeast  Level Estimated
03:47PM 46.2648 11.8572 58° Northeast  Level Estimated
03:48PM 46.3235 11.9952 58° Northeast  Level Estimated
03:49PM 46.3820 12.1335 58° Northeast  Level Estimated
03:50PM 46.4404 12.2721 59° Northeast  Level Estimated
03:51PM 46.4986 12.4110 59° Northeast  Level Estimated
03:52PM 46.5566 12.5502 59° Northeast  Level Estimated
03:53PM 46.6145 12.6897 59° Northeast  Level Estimated
03:54PM 46.6722 12.8295 59° Northeast  Level Estimated
03:55PM 46.7297 12.9696 59° Northeast  Level Estimated
03:56PM 46.7871 13.1100 59° Northeast  Level Estimated
03:57PM 46.8442 13.2507 59° Northeast  Level Estimated
03:58PM 46.9012 13.3917 59° Northeast  Level Estimated
03:59PM 46.9581 13.5330 59° Northeast  Level Estimated
04:00PM 47.0148 13.6746 60° Northeast  Level Estimated
04:01PM 47.0712 13.8164 60° Northeast  Level Estimated
04:02PM 47.1275 13.9586 60° Northeast  Level Estimated
04:03PM 47.1837 14.1011 60° Northeast  Level Estimated
04:04PM 47.2396 14.2439 60° Northeast  Level Estimated
04:05PM 47.2954 14.3870 60° Northeast  Level Estimated
04:06PM 47.3510 14.5304 60° Northeast  Level Estimated
04:07PM 47.4064 14.6741 60° Northeast  Level Estimated
04:08PM 47.4617 14.8181 60° Northeast  Level Estimated
04:09PM 47.5167 14.9624 60° Northeast  Level Estimated
04:10PM 47.5716 15.1070 61° Northeast  Level Estimated
04:11PM 47.6263 15.2519 61° Northeast  Level Estimated
04:12PM 47.6808 15.3971 61° Northeast  Level Estimated
04:13PM 47.7352 15.5426 61° Northeast  Level Estimated
04:14PM 47.7893 15.6884 61° Northeast  Level Estimated
04:15PM 47.8433 15.8346 61° Northeast  Level Estimated
04:16PM 47.8971 15.9810 61° Northeast  Level Estimated
04:17PM 47.9506 16.1277 61° Northeast  Level Estimated
04:18PM 48.0041 16.2748 61° Northeast  Level Estimated
04:19PM 48.0573 16.4221 62° Northeast  Level Estimated
04:20PM 48.1103 16.5697 62° Northeast  Level Estimated
04:21PM 48.1103 16.5697 146° Southeast  Level Estimated
04:22PM 48.1103 16.5697 146° Southeast  Level Estimated
04:23PM 48.1103 16.5697 146° Southeast  Level Estimated
04:24PM 48.1103 16.5697 146° Southeast  Level Estimated
04:25PM 48.1103 16.5697 146° Southeast  Level Estimated
04:26PM 48.1103 16.5697 146° Southeast  Level Estimated
04:27PM 48.1103 16.5697 146° Southeast  Level Estimated
04:28PM 48.1103 16.5697 146° Southeast  Level Estimated
04:29PM 48.1103 16.5697 146° Southeast  Level Estimated